sensor_id;sensor_type;location;lat;lon;timestamp;pressure;altitude;pressure_sealevel;temperature;humidity
49645;BME280;36494;50.730;-1.932;2023-04-22T00:01:09;100248.43;;;4.84;100.00
49645;BME280;36494;50.730;-1.932;2023-04-22T00:03:34;100243.90;;;4.82;100.00
49645;BME280;36494;50.730;-1.932;2023-04-22T00:05:59;100242.00;;;4.80;100.00
49645;BME280;36494;50.730;-1.932;2023-04-22T00:08:25;100236.64;;;4.80;100.00
49645;BME280;36494;50.730;-1.932;2023-04-22T00:10:50;100237.53;;;4.78;100.00
49645;BME280;36494;50.730;-1.932;2023-04-22T00:13:15;100233.30;;;4.76;100.00
49645;BME280;36494;50.730;-1.932;2023-04-22T00:15:41;100232.01;;;4.75;100.00
49645;BME280;36494;50.730;-1.932;2023-04-22T00:18:06;100229.90;;;4.72;100.00
49645;BME280;36494;50.730;-1.932;2023-04-22T00:20:31;100228.02;;;4.69;100.00
49645;BME280;36494;50.730;-1.932;2023-04-22T00:22:58;100225.92;;;4.68;100.00
49645;BME280;36494;50.730;-1.932;2023-04-22T00:25:22;100226.81;;;4.66;100.00
49645;BME280;36494;50.730;-1.932;2023-04-22T00:27:48;100225.64;;;4.64;100.00
49645;BME280;36494;50.730;-1.932;2023-04-22T00:30:14;100220.61;;;4.62;100.00
49645;BME280;36494;50.730;-1.932;2023-04-22T00:32:40;100219.96;;;4.61;100.00
49645;BME280;36494;50.730;-1.932;2023-04-22T00:35:06;100217.52;;;4.59;100.00
49645;BME280;36494;50.730;-1.932;2023-04-22T00:37:31;100215.32;;;4.57;100.00
49645;BME280;36494;50.730;-1.932;2023-04-22T00:39:56;100213.14;;;4.56;100.00
49645;BME280;36494;50.730;-1.932;2023-04-22T00:42:22;100213.39;;;4.54;100.00
49645;BME280;36494;50.730;-1.932;2023-04-22T00:44:47;100211.26;;;4.52;100.00
49645;BME280;36494;50.730;-1.932;2023-04-22T00:47:12;100209.11;;;4.49;100.00
49645;BME280;36494;50.730;-1.932;2023-04-22T00:49:38;100203.76;;;4.48;100.00
49645;BME280;36494;50.730;-1.932;2023-04-22T00:52:03;100202.48;;;4.48;100.00
49645;BME280;36494;50.730;-1.932;2023-04-22T00:54:29;100203.23;;;4.47;100.00
49645;BME280;36494;50.730;-1.932;2023-04-22T00:56:54;100203.12;;;4.45;100.00
49645;BME280;36494;50.730;-1.932;2023-04-22T00:59:19;100201.12;;;4.41;100.00
49645;BME280;36494;50.730;-1.932;2023-04-22T01:01:45;100202.14;;;4.38;100.00
49645;BME280;36494;50.730;-1.932;2023-04-22T01:04:10;100196.96;;;4.36;100.00
49645;BME280;36494;50.730;-1.932;2023-04-22T01:06:36;100192.64;;;4.33;100.00
49645;BME280;36494;50.730;-1.932;2023-04-22T01:09:00;100191.35;;;4.33;100.00
49645;BME280;36494;50.730;-1.932;2023-04-22T01:11:26;100190.55;;;4.33;100.00
49645;BME280;36494;50.730;-1.932;2023-04-22T01:13:52;100187.71;;;4.30;100.00
49645;BME280;36494;50.730;-1.932;2023-04-22T01:16:17;100184.22;;;4.31;100.00
49645;BME280;36494;50.730;-1.932;2023-04-22T01:18:43;100177.60;;;4.29;100.00
49645;BME280;36494;50.730;-1.932;2023-04-22T01:21:08;100176.88;;;4.31;100.00
49645;BME280;36494;50.730;-1.932;2023-04-22T01:23:34;100178.18;;;4.32;100.00
49645;BME280;36494;50.730;-1.932;2023-04-22T01:25:59;100177.66;;;4.30;100.00
49645;BME280;36494;50.730;-1.932;2023-04-22T01:28:24;100178.53;;;4.30;100.00
49645;BME280;36494;50.730;-1.932;2023-04-22T01:30:50;100180.59;;;4.29;100.00
49645;BME280;36494;50.730;-1.932;2023-04-22T01:33:15;100181.33;;;4.27;100.00
49645;BME280;36494;50.730;-1.932;2023-04-22T01:35:40;100183.85;;;4.26;100.00
49645;BME280;36494;50.730;-1.932;2023-04-22T01:38:08;100181.10;;;4.26;100.00
49645;BME280;36494;50.730;-1.932;2023-04-22T01:40:32;100174.79;;;4.25;100.00
49645;BME280;36494;50.730;-1.932;2023-04-22T01:42:57;100171.94;;;4.24;100.00
49645;BME280;36494;50.730;-1.932;2023-04-22T01:45:22;100165.73;;;4.25;100.00
49645;BME280;36494;50.730;-1.932;2023-04-22T01:47:47;100163.23;;;4.26;100.00
49645;BME280;36494;50.730;-1.932;2023-04-22T01:50:12;100163.88;;;4.25;100.00
49645;BME280;36494;50.730;-1.932;2023-04-22T01:52:38;100161.97;;;4.25;100.00
49645;BME280;36494;50.730;-1.932;2023-04-22T01:55:04;100161.98;;;4.25;100.00
49645;BME280;36494;50.730;-1.932;2023-04-22T01:57:29;100162.21;;;4.24;100.00
49645;BME280;36494;50.730;-1.932;2023-04-22T01:59:54;100159.34;;;4.23;100.00
49645;BME280;36494;50.730;-1.932;2023-04-22T02:02:19;100155.61;;;4.22;100.00
49645;BME280;36494;50.730;-1.932;2023-04-22T02:04:45;100154.39;;;4.21;100.00
49645;BME280;36494;50.730;-1.932;2023-04-22T02:07:10;100148.87;;;4.20;100.00
49645;BME280;36494;50.730;-1.932;2023-04-22T02:09:36;100148.75;;;4.20;100.00
49645;BME280;36494;50.730;-1.932;2023-04-22T02:12:01;100148.28;;;4.19;100.00
49645;BME280;36494;50.730;-1.932;2023-04-22T02:14:27;100151.29;;;4.18;100.00
49645;BME280;36494;50.730;-1.932;2023-04-22T02:16:53;100154.18;;;4.18;100.00
49645;BME280;36494;50.730;-1.932;2023-04-22T02:19:19;100154.97;;;4.17;100.00
49645;BME280;36494;50.730;-1.932;2023-04-22T02:21:44;100151.83;;;4.16;100.00
49645;BME280;36494;50.730;-1.932;2023-04-22T02:24:09;100148.14;;;4.16;100.00
49645;BME280;36494;50.730;-1.932;2023-04-22T02:26:35;100148.82;;;4.17;100.00
49645;BME280;36494;50.730;-1.932;2023-04-22T02:29:01;100148.54;;;4.15;100.00
49645;BME280;36494;50.730;-1.932;2023-04-22T02:31:26;100144.45;;;4.16;100.00
49645;BME280;36494;50.730;-1.932;2023-04-22T02:33:52;100143.80;;;4.17;100.00
49645;BME280;36494;50.730;-1.932;2023-04-22T02:36:17;100140.96;;;4.16;100.00
49645;BME280;36494;50.730;-1.932;2023-04-22T02:38:42;100141.74;;;4.14;100.00
49645;BME280;36494;50.730;-1.932;2023-04-22T02:41:08;100135.76;;;4.16;100.00
49645;BME280;36494;50.730;-1.932;2023-04-22T02:43:33;100135.13;;;4.16;100.00
49645;BME280;36494;50.730;-1.932;2023-04-22T02:45:58;100131.98;;;4.15;100.00
49645;BME280;36494;50.730;-1.932;2023-04-22T02:48:24;100132.82;;;4.15;100.00
49645;BME280;36494;50.730;-1.932;2023-04-22T02:50:50;100127.75;;;4.15;100.00
49645;BME280;36494;50.730;-1.932;2023-04-22T02:53:15;100130.41;;;4.13;100.00
49645;BME280;36494;50.730;-1.932;2023-04-22T02:55:40;100130.84;;;4.12;100.00
49645;BME280;36494;50.730;-1.932;2023-04-22T02:58:05;100126.25;;;4.11;100.00
49645;BME280;36494;50.730;-1.932;2023-04-22T03:00:30;100125.58;;;4.10;100.00
49645;BME280;36494;50.730;-1.932;2023-04-22T03:02:56;100124.82;;;4.10;100.00
49645;BME280;36494;50.730;-1.932;2023-04-22T03:05:21;100124.27;;;4.08;100.00
49645;BME280;36494;50.730;-1.932;2023-04-22T03:07:47;100120.51;;;4.06;100.00
49645;BME280;36494;50.730;-1.932;2023-04-22T03:10:12;100112.96;;;4.04;100.00
49645;BME280;36494;50.730;-1.932;2023-04-22T03:12:38;100109.94;;;4.03;100.00
49645;BME280;36494;50.730;-1.932;2023-04-22T03:15:04;100107.47;;;4.02;100.00
49645;BME280;36494;50.730;-1.932;2023-04-22T03:17:29;100106.21;;;4.00;100.00
49645;BME280;36494;50.730;-1.932;2023-04-22T03:19:54;100100.46;;;3.99;100.00
49645;BME280;36494;50.730;-1.932;2023-04-22T03:22:20;100097.81;;;3.97;100.00
49645;BME280;36494;50.730;-1.932;2023-04-22T03:24:46;100094.37;;;3.97;100.00
49645;BME280;36494;50.730;-1.932;2023-04-22T03:27:11;100094.02;;;3.95;100.00
49645;BME280;36494;50.730;-1.932;2023-04-22T03:29:37;100090.40;;;3.95;100.00
49645;BME280;36494;50.730;-1.932;2023-04-22T03:32:02;100086.12;;;3.95;100.00
49645;BME280;36494;50.730;-1.932;2023-04-22T03:34:28;100084.53;;;3.96;100.00
49645;BME280;36494;50.730;-1.932;2023-04-22T03:36:54;100079.71;;;3.98;100.00
49645;BME280;36494;50.730;-1.932;2023-04-22T03:39:19;100077.30;;;3.99;100.00
49645;BME280;36494;50.730;-1.932;2023-04-22T03:41:45;100079.03;;;3.98;100.00
49645;BME280;36494;50.730;-1.932;2023-04-22T03:44:10;100079.14;;;3.98;100.00
49645;BME280;36494;50.730;-1.932;2023-04-22T03:46:35;100084.49;;;4.00;100.00
49645;BME280;36494;50.730;-1.932;2023-04-22T03:49:01;100087.14;;;4.01;100.00
49645;BME280;36494;50.730;-1.932;2023-04-22T03:51:26;100086.93;;;4.02;100.00
49645;BME280;36494;50.730;-1.932;2023-04-22T03:53:52;100086.33;;;4.03;100.00
49645;BME280;36494;50.730;-1.932;2023-04-22T03:56:17;100087.03;;;4.06;100.00
49645;BME280;36494;50.730;-1.932;2023-04-22T03:58:43;100085.69;;;4.05;100.00
49645;BME280;36494;50.730;-1.932;2023-04-22T04:01:08;100082.26;;;4.05;100.00
49645;BME280;36494;50.730;-1.932;2023-04-22T04:03:34;100078.99;;;4.06;100.00
49645;BME280;36494;50.730;-1.932;2023-04-22T04:05:59;100078.73;;;4.08;100.00
49645;BME280;36494;50.730;-1.932;2023-04-22T04:08:25;100075.77;;;4.09;100.00
49645;BME280;36494;50.730;-1.932;2023-04-22T04:10:51;100076.33;;;4.11;100.00
49645;BME280;36494;50.730;-1.932;2023-04-22T04:13:17;100075.78;;;4.12;100.00
49645;BME280;36494;50.730;-1.932;2023-04-22T04:15:43;100078.64;;;4.13;100.00
49645;BME280;36494;50.730;-1.932;2023-04-22T04:18:08;100079.84;;;4.14;100.00
49645;BME280;36494;50.730;-1.932;2023-04-22T04:20:34;100079.46;;;4.15;100.00
49645;BME280;36494;50.730;-1.932;2023-04-22T04:22:59;100076.41;;;4.14;100.00
49645;BME280;36494;50.730;-1.932;2023-04-22T04:25:25;100070.51;;;4.15;100.00
49645;BME280;36494;50.730;-1.932;2023-04-22T04:27:51;100068.50;;;4.15;100.00
49645;BME280;36494;50.730;-1.932;2023-04-22T04:30:16;100063.68;;;4.16;100.00
49645;BME280;36494;50.730;-1.932;2023-04-22T04:32:42;100058.09;;;4.17;100.00
49645;BME280;36494;50.730;-1.932;2023-04-22T04:35:07;100056.74;;;4.18;100.00
49645;BME280;36494;50.730;-1.932;2023-04-22T04:37:33;100051.83;;;4.18;100.00
49645;BME280;36494;50.730;-1.932;2023-04-22T04:39:58;100051.79;;;4.20;100.00
49645;BME280;36494;50.730;-1.932;2023-04-22T04:42:23;100050.38;;;4.21;100.00
49645;BME280;36494;50.730;-1.932;2023-04-22T04:44:49;100051.23;;;4.22;100.00
49645;BME280;36494;50.730;-1.932;2023-04-22T04:47:15;100049.18;;;4.21;100.00
49645;BME280;36494;50.730;-1.932;2023-04-22T04:49:40;100044.00;;;4.23;100.00
49645;BME280;36494;50.730;-1.932;2023-04-22T04:52:05;100045.04;;;4.23;100.00
49645;BME280;36494;50.730;-1.932;2023-04-22T04:54:31;100045.66;;;4.23;100.00
49645;BME280;36494;50.730;-1.932;2023-04-22T04:56:56;100038.92;;;4.21;100.00
49645;BME280;36494;50.730;-1.932;2023-04-22T04:59:21;100037.52;;;4.20;100.00
49645;BME280;36494;50.730;-1.932;2023-04-22T05:01:46;100039.95;;;4.20;100.00
49645;BME280;36494;50.730;-1.932;2023-04-22T05:04:12;100033.50;;;4.18;100.00
49645;BME280;36494;50.730;-1.932;2023-04-22T05:06:37;100034.07;;;4.16;100.00
49645;BME280;36494;50.730;-1.932;2023-04-22T05:09:02;100037.02;;;4.15;100.00
49645;BME280;36494;50.730;-1.932;2023-04-22T05:11:28;100042.15;;;4.14;100.00
49645;BME280;36494;50.730;-1.932;2023-04-22T05:13:53;100042.73;;;4.12;100.00
49645;BME280;36494;50.730;-1.932;2023-04-22T05:16:18;100040.44;;;4.11;100.00
49645;BME280;36494;50.730;-1.932;2023-04-22T05:18:43;100038.84;;;4.11;100.00
49645;BME280;36494;50.730;-1.932;2023-04-22T05:21:09;100033.98;;;4.11;100.00
49645;BME280;36494;50.730;-1.932;2023-04-22T05:23:34;100029.57;;;4.11;100.00
49645;BME280;36494;50.730;-1.932;2023-04-22T05:26:00;100024.25;;;4.11;100.00
49645;BME280;36494;50.730;-1.932;2023-04-22T05:28:26;100019.94;;;4.13;100.00
49645;BME280;36494;50.730;-1.932;2023-04-22T05:30:51;100013.80;;;4.13;100.00
49645;BME280;36494;50.730;-1.932;2023-04-22T05:33:16;100004.99;;;4.14;100.00
49645;BME280;36494;50.730;-1.932;2023-04-22T05:35:42;99999.35;;;4.14;100.00
49645;BME280;36494;50.730;-1.932;2023-04-22T05:38:08;99992.14;;;4.16;100.00
49645;BME280;36494;50.730;-1.932;2023-04-22T05:40:33;99994.49;;;4.17;100.00
49645;BME280;36494;50.730;-1.932;2023-04-22T05:42:58;100001.47;;;4.18;100.00
49645;BME280;36494;50.730;-1.932;2023-04-22T05:45:23;100002.87;;;4.20;100.00
49645;BME280;36494;50.730;-1.932;2023-04-22T05:47:49;100004.70;;;4.20;100.00
49645;BME280;36494;50.730;-1.932;2023-04-22T05:50:15;100008.70;;;4.24;100.00
49645;BME280;36494;50.730;-1.932;2023-04-22T05:52:40;100014.20;;;4.26;100.00
49645;BME280;36494;50.730;-1.932;2023-04-22T05:55:06;100016.73;;;4.27;100.00
49645;BME280;36494;50.730;-1.932;2023-04-22T05:57:31;100021.89;;;4.30;100.00
49645;BME280;36494;50.730;-1.932;2023-04-22T05:59:56;100023.39;;;4.33;100.00
49645;BME280;36494;50.730;-1.932;2023-04-22T06:02:22;100026.72;;;4.36;100.00
49645;BME280;36494;50.730;-1.932;2023-04-22T06:04:47;100026.65;;;4.38;100.00
49645;BME280;36494;50.730;-1.932;2023-04-22T06:07:12;100027.77;;;4.42;100.00
49645;BME280;36494;50.730;-1.932;2023-04-22T06:09:38;100028.56;;;4.46;100.00
49645;BME280;36494;50.730;-1.932;2023-04-22T06:12:03;100028.76;;;4.49;100.00
49645;BME280;36494;50.730;-1.932;2023-04-22T06:14:29;100033.85;;;4.52;100.00
49645;BME280;36494;50.730;-1.932;2023-04-22T06:16:54;100035.74;;;4.56;100.00
49645;BME280;36494;50.730;-1.932;2023-04-22T06:19:19;100035.15;;;4.59;100.00
49645;BME280;36494;50.730;-1.932;2023-04-22T06:21:45;100031.63;;;4.62;100.00
49645;BME280;36494;50.730;-1.932;2023-04-22T06:24:10;100033.81;;;4.65;100.00
49645;BME280;36494;50.730;-1.932;2023-04-22T06:26:35;100029.99;;;4.69;100.00
49645;BME280;36494;50.730;-1.932;2023-04-22T06:29:01;100027.24;;;4.74;100.00
49645;BME280;36494;50.730;-1.932;2023-04-22T06:31:26;100025.45;;;4.78;100.00
49645;BME280;36494;50.730;-1.932;2023-04-22T06:33:51;100027.74;;;4.82;100.00
49645;BME280;36494;50.730;-1.932;2023-04-22T06:36:16;100032.48;;;4.86;100.00
49645;BME280;36494;50.730;-1.932;2023-04-22T06:38:42;100033.15;;;4.91;100.00
49645;BME280;36494;50.730;-1.932;2023-04-22T06:41:08;100029.09;;;4.94;100.00
49645;BME280;36494;50.730;-1.932;2023-04-22T06:43:34;100024.40;;;4.98;100.00
49645;BME280;36494;50.730;-1.932;2023-04-22T06:45:59;100024.15;;;5.03;100.00
49645;BME280;36494;50.730;-1.932;2023-04-22T06:48:24;100021.73;;;5.08;100.00
49645;BME280;36494;50.730;-1.932;2023-04-22T06:50:49;100021.11;;;5.13;100.00
49645;BME280;36494;50.730;-1.932;2023-04-22T06:53:15;100022.15;;;5.18;100.00
49645;BME280;36494;50.730;-1.932;2023-04-22T06:55:40;100023.05;;;5.24;100.00
49645;BME280;36494;50.730;-1.932;2023-04-22T06:58:06;100024.73;;;5.30;100.00
49645;BME280;36494;50.730;-1.932;2023-04-22T07:00:31;100021.63;;;5.36;100.00
49645;BME280;36494;50.730;-1.932;2023-04-22T07:02:57;100022.77;;;5.42;100.00
49645;BME280;36494;50.730;-1.932;2023-04-22T07:05:23;100025.92;;;5.48;100.00
49645;BME280;36494;50.730;-1.932;2023-04-22T07:07:47;100027.50;;;5.53;100.00
49645;BME280;36494;50.730;-1.932;2023-04-22T07:10:13;100033.23;;;5.60;100.00
49645;BME280;36494;50.730;-1.932;2023-04-22T07:12:38;100034.72;;;5.66;100.00
49645;BME280;36494;50.730;-1.932;2023-04-22T07:15:05;100031.79;;;5.73;100.00
49645;BME280;36494;50.730;-1.932;2023-04-22T07:17:29;100030.56;;;5.75;100.00
49645;BME280;36494;50.730;-1.932;2023-04-22T07:19:55;100027.90;;;5.82;100.00
49645;BME280;36494;50.730;-1.932;2023-04-22T07:22:20;100028.71;;;5.88;100.00
49645;BME280;36494;50.730;-1.932;2023-04-22T07:24:46;100029.34;;;5.95;100.00
49645;BME280;36494;50.730;-1.932;2023-04-22T07:27:11;100027.82;;;6.02;100.00
49645;BME280;36494;50.730;-1.932;2023-04-22T07:29:36;100031.93;;;6.08;100.00
49645;BME280;36494;50.730;-1.932;2023-04-22T07:32:02;100035.19;;;6.13;100.00
49645;BME280;36494;50.730;-1.932;2023-04-22T07:34:27;100031.59;;;6.19;100.00
49645;BME280;36494;50.730;-1.932;2023-04-22T07:36:52;100028.87;;;6.25;100.00
49645;BME280;36494;50.730;-1.932;2023-04-22T07:39:18;100028.81;;;6.32;100.00
49645;BME280;36494;50.730;-1.932;2023-04-22T07:41:43;100033.34;;;6.41;100.00
49645;BME280;36494;50.730;-1.932;2023-04-22T07:44:09;100036.40;;;6.49;100.00
49645;BME280;36494;50.730;-1.932;2023-04-22T07:46:34;100038.95;;;6.57;100.00
49645;BME280;36494;50.730;-1.932;2023-04-22T07:48:59;100036.24;;;6.62;100.00
49645;BME280;36494;50.730;-1.932;2023-04-22T07:51:25;100030.90;;;6.71;100.00
49645;BME280;36494;50.730;-1.932;2023-04-22T07:53:51;100031.17;;;6.81;100.00
49645;BME280;36494;50.730;-1.932;2023-04-22T07:56:16;100034.87;;;6.90;100.00
49645;BME280;36494;50.730;-1.932;2023-04-22T07:58:41;100035.34;;;6.95;100.00
49645;BME280;36494;50.730;-1.932;2023-04-22T08:01:06;100036.06;;;7.02;100.00
49645;BME280;36494;50.730;-1.932;2023-04-22T08:03:32;100037.42;;;7.11;100.00
49645;BME280;36494;50.730;-1.932;2023-04-22T08:05:58;100034.07;;;7.19;100.00
49645;BME280;36494;50.730;-1.932;2023-04-22T08:08:24;100036.11;;;7.28;100.00
49645;BME280;36494;50.730;-1.932;2023-04-22T08:10:48;100033.88;;;7.34;100.00
49645;BME280;36494;50.730;-1.932;2023-04-22T08:13:14;100036.14;;;7.39;100.00
49645;BME280;36494;50.730;-1.932;2023-04-22T08:15:40;100035.15;;;7.51;100.00
49645;BME280;36494;50.730;-1.932;2023-04-22T08:18:06;100035.68;;;7.61;100.00
49645;BME280;36494;50.730;-1.932;2023-04-22T08:20:31;100038.42;;;7.71;100.00
49645;BME280;36494;50.730;-1.932;2023-04-22T08:22:57;100039.63;;;7.77;100.00
49645;BME280;36494;50.730;-1.932;2023-04-22T08:25:22;100032.90;;;7.85;100.00
49645;BME280;36494;50.730;-1.932;2023-04-22T08:27:48;100034.91;;;7.93;100.00
49645;BME280;36494;50.730;-1.932;2023-04-22T08:30:13;100033.50;;;8.04;100.00
49645;BME280;36494;50.730;-1.932;2023-04-22T08:32:39;100031.68;;;8.07;100.00
49645;BME280;36494;50.730;-1.932;2023-04-22T08:35:05;100025.96;;;8.16;100.00
49645;BME280;36494;50.730;-1.932;2023-04-22T08:37:29;100021.77;;;8.22;100.00
49645;BME280;36494;50.730;-1.932;2023-04-22T08:39:55;100021.11;;;8.29;100.00
49645;BME280;36494;50.730;-1.932;2023-04-22T08:42:21;100020.85;;;8.39;100.00
49645;BME280;36494;50.730;-1.932;2023-04-22T08:44:45;100019.30;;;8.45;100.00
49645;BME280;36494;50.730;-1.932;2023-04-22T08:47:12;100014.28;;;8.49;100.00
49645;BME280;36494;50.730;-1.932;2023-04-22T08:49:37;100008.08;;;8.59;100.00
49645;BME280;36494;50.730;-1.932;2023-04-22T08:52:03;100005.31;;;8.70;100.00
49645;BME280;36494;50.730;-1.932;2023-04-22T08:54:28;100005.57;;;8.83;100.00
49645;BME280;36494;50.730;-1.932;2023-04-22T08:56:54;100006.03;;;8.90;100.00
49645;BME280;36494;50.730;-1.932;2023-04-22T08:59:21;100004.31;;;8.98;100.00
49645;BME280;36494;50.730;-1.932;2023-04-22T09:01:48;100002.61;;;9.09;100.00
49645;BME280;36494;50.730;-1.932;2023-04-22T09:04:10;100001.43;;;9.19;100.00
49645;BME280;36494;50.730;-1.932;2023-04-22T09:06:35;100000.42;;;9.31;100.00
49645;BME280;36494;50.730;-1.932;2023-04-22T09:09:00;100002.01;;;9.44;100.00
49645;BME280;36494;50.730;-1.932;2023-04-22T09:11:26;100002.30;;;9.62;100.00
49645;BME280;36494;50.730;-1.932;2023-04-22T09:13:53;100001.47;;;9.72;100.00
49645;BME280;36494;50.730;-1.932;2023-04-22T09:16:17;99999.82;;;9.82;100.00
49645;BME280;36494;50.730;-1.932;2023-04-22T09:18:43;99998.79;;;9.87;100.00
49645;BME280;36494;50.730;-1.932;2023-04-22T09:21:09;99996.99;;;9.94;100.00
49645;BME280;36494;50.730;-1.932;2023-04-22T09:23:45;99996.41;;;10.13;100.00
49645;BME280;36494;50.730;-1.932;2023-04-22T09:26:00;99995.83;;;10.13;100.00
49645;BME280;36494;50.730;-1.932;2023-04-22T09:28:25;99993.44;;;10.10;100.00
49645;BME280;36494;50.730;-1.932;2023-04-22T09:30:51;99989.87;;;9.98;100.00
49645;BME280;36494;50.730;-1.932;2023-04-22T09:33:16;99990.46;;;10.10;100.00
49645;BME280;36494;50.730;-1.932;2023-04-22T09:35:43;99988.76;;;10.23;100.00
49645;BME280;36494;50.730;-1.932;2023-04-22T09:38:10;99986.07;;;10.26;100.00
49645;BME280;36494;50.730;-1.932;2023-04-22T09:40:34;99986.24;;;10.38;100.00
49645;BME280;36494;50.730;-1.932;2023-04-22T09:43:00;99987.81;;;10.48;100.00
49645;BME280;36494;50.730;-1.932;2023-04-22T09:45:26;99984.14;;;10.32;100.00
49645;BME280;36494;50.730;-1.932;2023-04-22T09:47:49;99986.57;;;10.42;100.00
49645;BME280;36494;50.730;-1.932;2023-04-22T09:50:15;99988.17;;;10.52;100.00
49645;BME280;36494;50.730;-1.932;2023-04-22T09:52:40;99986.17;;;10.47;100.00
49645;BME280;36494;50.730;-1.932;2023-04-22T09:55:08;99986.61;;;10.50;100.00
49645;BME280;36494;50.730;-1.932;2023-04-22T09:57:32;99987.80;;;10.59;100.00
49645;BME280;36494;50.730;-1.932;2023-04-22T09:59:57;99986.43;;;10.43;100.00
49645;BME280;36494;50.730;-1.932;2023-04-22T10:02:27;99984.22;;;10.31;100.00
49645;BME280;36494;50.730;-1.932;2023-04-22T10:04:48;99990.44;;;10.62;100.00
49645;BME280;36494;50.730;-1.932;2023-04-22T10:07:13;99993.01;;;10.65;100.00
49645;BME280;36494;50.730;-1.932;2023-04-22T10:09:38;99988.96;;;10.50;100.00
49645;BME280;36494;50.730;-1.932;2023-04-22T10:12:04;99989.30;;;10.71;100.00
49645;BME280;36494;50.730;-1.932;2023-04-22T10:14:29;99989.68;;;10.94;100.00
49645;BME280;36494;50.730;-1.932;2023-04-22T10:16:57;99992.17;;;11.06;100.00
49645;BME280;36494;50.730;-1.932;2023-04-22T10:19:21;99992.11;;;11.32;100.00
49645;BME280;36494;50.730;-1.932;2023-04-22T10:21:47;99994.38;;;11.29;100.00
49645;BME280;36494;50.730;-1.932;2023-04-22T10:24:15;99991.75;;;11.39;100.00
49645;BME280;36494;50.730;-1.932;2023-04-22T10:26:39;99986.18;;;11.42;100.00
49645;BME280;36494;50.730;-1.932;2023-04-22T10:29:05;99984.50;;;11.60;100.00
49645;BME280;36494;50.730;-1.932;2023-04-22T10:31:27;99982.27;;;11.93;100.00
49645;BME280;36494;50.730;-1.932;2023-04-22T10:36:19;99983.33;;;12.35;100.00
49645;BME280;36494;50.730;-1.932;2023-04-22T10:41:13;99985.10;;;12.63;100.00
49645;BME280;36494;50.730;-1.932;2023-04-22T10:43:40;99985.38;;;12.30;100.00
49645;BME280;36494;50.730;-1.932;2023-04-22T10:46:00;99984.26;;;12.41;100.00
49645;BME280;36494;50.730;-1.932;2023-04-22T10:50:52;99983.19;;;12.67;100.00
49645;BME280;36494;50.730;-1.932;2023-04-22T10:53:33;99980.08;;;12.65;100.00
49645;BME280;36494;50.730;-1.932;2023-04-22T10:55:49;99984.90;;;12.09;100.00
49645;BME280;36494;50.730;-1.932;2023-04-22T10:58:17;99989.14;;;12.55;100.00
49645;BME280;36494;50.730;-1.932;2023-04-22T11:00:40;99994.05;;;12.51;100.00
49645;BME280;36494;50.730;-1.932;2023-04-22T11:03:07;99995.67;;;12.44;100.00
49645;BME280;36494;50.730;-1.932;2023-04-22T11:05:26;100000.86;;;12.44;100.00
49645;BME280;36494;50.730;-1.932;2023-04-22T11:07:53;100001.77;;;12.31;100.00
49645;BME280;36494;50.730;-1.932;2023-04-22T11:10:31;100008.60;;;12.18;100.00
49645;BME280;36494;50.730;-1.932;2023-04-22T11:12:43;100004.24;;;12.06;100.00
49645;BME280;36494;50.730;-1.932;2023-04-22T11:15:09;99999.00;;;11.97;100.00
49645;BME280;36494;50.730;-1.932;2023-04-22T11:17:34;100002.53;;;12.01;100.00
49645;BME280;36494;50.730;-1.932;2023-04-22T11:20:00;99999.73;;;11.77;100.00
49645;BME280;36494;50.730;-1.932;2023-04-22T11:22:24;99998.38;;;12.10;100.00
49645;BME280;36494;50.730;-1.932;2023-04-22T11:24:53;100005.51;;;12.20;100.00
49645;BME280;36494;50.730;-1.932;2023-04-22T11:27:15;100001.81;;;12.16;100.00
49645;BME280;36494;50.730;-1.932;2023-04-22T11:29:40;100004.76;;;12.17;100.00
49645;BME280;36494;50.730;-1.932;2023-04-22T11:32:05;100008.54;;;12.05;100.00
49645;BME280;36494;50.730;-1.932;2023-04-22T11:34:31;100008.78;;;12.28;100.00
49645;BME280;36494;50.730;-1.932;2023-04-22T11:36:57;100011.60;;;12.24;100.00
49645;BME280;36494;50.730;-1.932;2023-04-22T11:39:22;100011.59;;;12.02;100.00
49645;BME280;36494;50.730;-1.932;2023-04-22T11:41:47;100008.11;;;11.65;100.00
49645;BME280;36494;50.730;-1.932;2023-04-22T11:44:13;100008.27;;;11.75;100.00
49645;BME280;36494;50.730;-1.932;2023-04-22T11:46:38;100003.42;;;11.84;100.00
49645;BME280;36494;50.730;-1.932;2023-04-22T11:49:13;100004.49;;;11.85;100.00
49645;BME280;36494;50.730;-1.932;2023-04-22T11:51:29;99998.99;;;11.89;100.00
49645;BME280;36494;50.730;-1.932;2023-04-22T11:53:55;99999.87;;;11.86;100.00
49645;BME280;36494;50.730;-1.932;2023-04-22T11:56:20;99999.83;;;12.14;100.00
49645;BME280;36494;50.730;-1.932;2023-04-22T11:58:46;99997.58;;;12.02;100.00
49645;BME280;36494;50.730;-1.932;2023-04-22T12:01:12;99998.37;;;11.91;100.00
49645;BME280;36494;50.730;-1.932;2023-04-22T12:03:36;100000.43;;;11.68;100.00
49645;BME280;36494;50.730;-1.932;2023-04-22T12:06:03;99997.36;;;11.93;100.00
49645;BME280;36494;50.730;-1.932;2023-04-22T12:08:30;100002.15;;;11.59;100.00
49645;BME280;36494;50.730;-1.932;2023-04-22T12:10:57;99999.57;;;11.61;100.00
49645;BME280;36494;50.730;-1.932;2023-04-22T12:13:19;99999.00;;;12.02;100.00
49645;BME280;36494;50.730;-1.932;2023-04-22T12:15:44;100003.21;;;11.50;100.00
49645;BME280;36494;50.730;-1.932;2023-04-22T12:18:09;100002.63;;;11.77;100.00
49645;BME280;36494;50.730;-1.932;2023-04-22T12:20:35;100005.32;;;11.58;100.00
49645;BME280;36494;50.730;-1.932;2023-04-22T12:23:00;100008.35;;;11.44;100.00
49645;BME280;36494;50.730;-1.932;2023-04-22T12:25:26;100004.60;;;11.76;100.00
49645;BME280;36494;50.730;-1.932;2023-04-22T12:27:51;100004.16;;;11.53;100.00
49645;BME280;36494;50.730;-1.932;2023-04-22T12:30:17;100006.03;;;11.44;100.00
49645;BME280;36494;50.730;-1.932;2023-04-22T12:32:42;100009.55;;;11.43;100.00
49645;BME280;36494;50.730;-1.932;2023-04-22T12:35:08;100011.33;;;11.45;100.00
49645;BME280;36494;50.730;-1.932;2023-04-22T12:37:33;100005.51;;;11.36;100.00